sensor_id;sensor_type;location;lat;lon;timestamp;P1;durP1;ratioP1;P2;durP2;ratioP2
26040;SDS011;13816;53.628;9.950;2022-10-31T00:01:29;47.03;;;33.87;;
26040;SDS011;13816;53.628;9.950;2022-10-31T00:03:57;56.40;;;35.73;;
26040;SDS011;13816;53.628;9.950;2022-10-31T00:06:23;43.80;;;34.37;;
26040;SDS011;13816;53.628;9.950;2022-10-31T00:08:56;44.97;;;32.97;;
26040;SDS011;13816;53.628;9.950;2022-10-31T00:11:23;44.77;;;32.30;;
26040;SDS011;13816;53.628;9.950;2022-10-31T00:13:49;46.77;;;34.23;;
26040;SDS011;13816;53.628;9.950;2022-10-31T00:16:16;61.83;;;37.57;;
26040;SDS011;13816;53.628;9.950;2022-10-31T00:18:43;61.47;;;38.10;;
26040;SDS011;13816;53.628;9.950;2022-10-31T00:21:09;60.07;;;37.80;;
26040;SDS011;13816;53.628;9.950;2022-10-31T00:23:34;55.23;;;35.97;;
26040;SDS011;13816;53.628;9.950;2022-10-31T00:26:03;56.53;;;37.00;;
26040;SDS011;13816;53.628;9.950;2022-10-31T00:28:30;50.77;;;36.23;;
26040;SDS011;13816;53.628;9.950;2022-10-31T00:31:05;59.40;;;35.67;;
26040;SDS011;13816;53.628;9.950;2022-10-31T00:33:33;53.97;;;34.43;;
26040;SDS011;13816;53.628;9.950;2022-10-31T00:36:01;53.10;;;35.13;;
26040;SDS011;13816;53.628;9.950;2022-10-31T00:38:27;46.40;;;30.40;;
26040;SDS011;13816;53.628;9.950;2022-10-31T00:40:53;47.53;;;33.20;;
26040;SDS011;13816;53.628;9.950;2022-10-31T00:43:19;46.63;;;33.40;;
26040;SDS011;13816;53.628;9.950;2022-10-31T00:45:45;42.43;;;29.00;;
26040;SDS011;13816;53.628;9.950;2022-10-31T00:48:10;51.77;;;32.40;;
26040;SDS011;13816;53.628;9.950;2022-10-31T00:50:36;53.17;;;30.33;;
26040;SDS011;13816;53.628;9.950;2022-10-31T00:53:02;42.80;;;27.90;;
26040;SDS011;13816;53.628;9.950;2022-10-31T00:55:28;44.17;;;30.33;;
26040;SDS011;13816;53.628;9.950;2022-10-31T00:57:54;40.33;;;28.73;;
26040;SDS011;13816;53.628;9.950;2022-10-31T01:00:19;38.43;;;27.57;;
26040;SDS011;13816;53.628;9.950;2022-10-31T01:02:46;50.77;;;29.70;;
26040;SDS011;13816;53.628;9.950;2022-10-31T01:05:12;39.80;;;28.40;;
26040;SDS011;13816;53.628;9.950;2022-10-31T01:07:38;42.10;;;28.97;;
26040;SDS011;13816;53.628;9.950;2022-10-31T01:10:08;40.57;;;27.43;;
26040;SDS011;13816;53.628;9.950;2022-10-31T01:12:38;40.07;;;27.97;;
26040;SDS011;13816;53.628;9.950;2022-10-31T01:15:06;35.27;;;26.60;;
26040;SDS011;13816;53.628;9.950;2022-10-31T01:17:33;38.63;;;24.93;;
26040;SDS011;13816;53.628;9.950;2022-10-31T01:19:59;32.27;;;25.00;;
26040;SDS011;13816;53.628;9.950;2022-10-31T01:22:26;42.13;;;25.90;;
26040;SDS011;13816;53.628;9.950;2022-10-31T01:24:52;41.90;;;25.70;;
26040;SDS011;13816;53.628;9.950;2022-10-31T01:27:18;37.93;;;25.17;;
26040;SDS011;13816;53.628;9.950;2022-10-31T01:29:44;33.40;;;24.10;;
26040;SDS011;13816;53.628;9.950;2022-10-31T01:32:10;34.20;;;22.90;;
26040;SDS011;13816;53.628;9.950;2022-10-31T01:34:36;35.07;;;23.13;;
26040;SDS011;13816;53.628;9.950;2022-10-31T01:37:01;35.87;;;22.60;;
26040;SDS011;13816;53.628;9.950;2022-10-31T01:39:27;34.60;;;24.40;;
26040;SDS011;13816;53.628;9.950;2022-10-31T01:41:53;31.07;;;22.83;;
26040;SDS011;13816;53.628;9.950;2022-10-31T01:49:47;31.47;;;23.53;;
26040;SDS011;13816;53.628;9.950;2022-10-31T01:52:24;34.03;;;22.37;;
26040;SDS011;13816;53.628;9.950;2022-10-31T01:55:03;34.00;;;23.73;;
26040;SDS011;13816;53.628;9.950;2022-10-31T01:57:33;35.20;;;23.33;;
26040;SDS011;13816;53.628;9.950;2022-10-31T02:00:02;45.50;;;25.10;;
26040;SDS011;13816;53.628;9.950;2022-10-31T02:02:38;34.40;;;23.13;;
26040;SDS011;13816;53.628;9.950;2022-10-31T02:05:06;39.73;;;23.70;;
26040;SDS011;13816;53.628;9.950;2022-10-31T02:08:25;36.77;;;23.33;;
26040;SDS011;13816;53.628;9.950;2022-10-31T02:10:28;41.27;;;23.87;;
26040;SDS011;13816;53.628;9.950;2022-10-31T02:12:57;39.83;;;23.50;;
26040;SDS011;13816;53.628;9.950;2022-10-31T02:15:24;42.60;;;26.03;;
26040;SDS011;13816;53.628;9.950;2022-10-31T02:17:51;41.33;;;24.70;;
26040;SDS011;13816;53.628;9.950;2022-10-31T02:20:18;33.80;;;24.43;;
26040;SDS011;13816;53.628;9.950;2022-10-31T02:31:42;36.20;;;23.23;;
26040;SDS011;13816;53.628;9.950;2022-10-31T02:34:44;40.97;;;24.70;;
26040;SDS011;13816;53.628;9.950;2022-10-31T02:40:24;33.77;;;23.33;;
26040;SDS011;13816;53.628;9.950;2022-10-31T02:43:20;39.03;;;24.77;;
26040;SDS011;13816;53.628;9.950;2022-10-31T02:46:02;45.67;;;24.27;;
26040;SDS011;13816;53.628;9.950;2022-10-31T02:49:05;35.17;;;23.60;;
26040;SDS011;13816;53.628;9.950;2022-10-31T02:51:37;38.57;;;24.27;;
26040;SDS011;13816;53.628;9.950;2022-10-31T02:54:04;47.30;;;25.90;;
26040;SDS011;13816;53.628;9.950;2022-10-31T02:56:30;37.17;;;24.87;;
26040;SDS011;13816;53.628;9.950;2022-10-31T02:58:57;42.10;;;26.40;;
26040;SDS011;13816;53.628;9.950;2022-10-31T03:01:43;36.33;;;25.50;;
26040;SDS011;13816;53.628;9.950;2022-10-31T03:09:52;38.57;;;25.47;;
26040;SDS011;13816;53.628;9.950;2022-10-31T03:12:28;40.07;;;26.73;;
26040;SDS011;13816;53.628;9.950;2022-10-31T03:15:08;43.47;;;26.80;;
26040;SDS011;13816;53.628;9.950;2022-10-31T03:17:44;39.90;;;25.53;;
26040;SDS011;13816;53.628;9.950;2022-10-31T03:20:12;49.70;;;26.93;;
26040;SDS011;13816;53.628;9.950;2022-10-31T03:22:40;54.90;;;28.60;;
26040;SDS011;13816;53.628;9.950;2022-10-31T03:25:08;52.90;;;28.13;;
26040;SDS011;13816;53.628;9.950;2022-10-31T03:27:35;43.63;;;25.67;;
26040;SDS011;13816;53.628;9.950;2022-10-31T03:30:03;52.70;;;27.37;;
26040;SDS011;13816;53.628;9.950;2022-10-31T03:32:44;60.47;;;30.20;;
26040;SDS011;13816;53.628;9.950;2022-10-31T03:35:18;47.97;;;28.23;;
26040;SDS011;13816;53.628;9.950;2022-10-31T03:37:47;57.47;;;31.77;;
26040;SDS011;13816;53.628;9.950;2022-10-31T03:40:18;58.80;;;31.40;;
26040;SDS011;13816;53.628;9.950;2022-10-31T03:42:53;57.13;;;32.23;;
26040;SDS011;13816;53.628;9.950;2022-10-31T03:45:27;59.93;;;33.43;;
26040;SDS011;13816;53.628;9.950;2022-10-31T03:47:55;57.73;;;33.37;;
26040;SDS011;13816;53.628;9.950;2022-10-31T03:50:23;57.40;;;31.10;;
26040;SDS011;13816;53.628;9.950;2022-10-31T03:52:57;61.33;;;34.53;;
26040;SDS011;13816;53.628;9.950;2022-10-31T03:55:42;77.63;;;36.80;;
26040;SDS011;13816;53.628;9.950;2022-10-31T03:58:27;78.23;;;38.23;;
26040;SDS011;13816;53.628;9.950;2022-10-31T04:01:00;65.33;;;36.77;;
26040;SDS011;13816;53.628;9.950;2022-10-31T04:03:30;65.97;;;35.10;;
26040;SDS011;13816;53.628;9.950;2022-10-31T04:06:00;72.77;;;38.07;;
26040;SDS011;13816;53.628;9.950;2022-10-31T04:08:32;71.20;;;36.73;;
26040;SDS011;13816;53.628;9.950;2022-10-31T04:11:02;80.17;;;37.77;;
26040;SDS011;13816;53.628;9.950;2022-10-31T04:13:31;83.47;;;39.80;;
26040;SDS011;13816;53.628;9.950;2022-10-31T04:16:06;69.37;;;38.07;;
26040;SDS011;13816;53.628;9.950;2022-10-31T04:18:32;70.10;;;37.83;;
26040;SDS011;13816;53.628;9.950;2022-10-31T04:20:59;78.27;;;36.80;;
26040;SDS011;13816;53.628;9.950;2022-10-31T04:23:29;73.37;;;37.40;;
26040;SDS011;13816;53.628;9.950;2022-10-31T04:25:57;85.47;;;37.73;;
26040;SDS011;13816;53.628;9.950;2022-10-31T04:28:23;76.40;;;38.53;;
26040;SDS011;13816;53.628;9.950;2022-10-31T04:30:50;86.93;;;39.80;;
26040;SDS011;13816;53.628;9.950;2022-10-31T04:33:16;92.57;;;39.20;;
26040;SDS011;13816;53.628;9.950;2022-10-31T04:35:44;83.97;;;41.53;;
26040;SDS011;13816;53.628;9.950;2022-10-31T04:38:09;75.63;;;37.63;;
26040;SDS011;13816;53.628;9.950;2022-10-31T04:40:37;85.50;;;41.87;;
26040;SDS011;13816;53.628;9.950;2022-10-31T04:43:23;78.40;;;40.80;;
26040;SDS011;13816;53.628;9.950;2022-10-31T04:45:48;82.63;;;39.87;;
26040;SDS011;13816;53.628;9.950;2022-10-31T04:48:14;96.63;;;44.00;;
26040;SDS011;13816;53.628;9.950;2022-10-31T04:50:42;100.87;;;44.10;;
26040;SDS011;13816;53.628;9.950;2022-10-31T04:53:07;102.83;;;44.97;;
26040;SDS011;13816;53.628;9.950;2022-10-31T04:55:42;102.60;;;44.83;;
26040;SDS011;13816;53.628;9.950;2022-10-31T04:58:30;108.77;;;47.60;;
26040;SDS011;13816;53.628;9.950;2022-10-31T05:00:57;130.73;;;46.30;;
26040;SDS011;13816;53.628;9.950;2022-10-31T05:03:22;122.70;;;47.80;;
26040;SDS011;13816;53.628;9.950;2022-10-31T05:05:49;105.03;;;45.73;;
26040;SDS011;13816;53.628;9.950;2022-10-31T05:08:15;102.43;;;43.30;;
26040;SDS011;13816;53.628;9.950;2022-10-31T05:10:41;92.87;;;42.87;;
26040;SDS011;13816;53.628;9.950;2022-10-31T05:13:06;107.60;;;43.40;;
26040;SDS011;13816;53.628;9.950;2022-10-31T05:15:32;107.07;;;43.83;;
26040;SDS011;13816;53.628;9.950;2022-10-31T05:18:16;88.00;;;41.67;;
26040;SDS011;13816;53.628;9.950;2022-10-31T05:20:42;106.60;;;40.30;;
26040;SDS011;13816;53.628;9.950;2022-10-31T05:23:28;83.00;;;41.70;;
26040;SDS011;13816;53.628;9.950;2022-10-31T05:25:54;94.83;;;40.70;;
26040;SDS011;13816;53.628;9.950;2022-10-31T05:28:19;80.83;;;40.37;;
26040;SDS011;13816;53.628;9.950;2022-10-31T05:30:45;88.13;;;41.67;;
26040;SDS011;13816;53.628;9.950;2022-10-31T05:33:14;97.00;;;39.83;;
26040;SDS011;13816;53.628;9.950;2022-10-31T05:36:05;85.87;;;39.20;;
26040;SDS011;13816;53.628;9.950;2022-10-31T05:38:44;120.27;;;42.60;;
26040;SDS011;13816;53.628;9.950;2022-10-31T05:41:15;83.97;;;40.50;;
26040;SDS011;13816;53.628;9.950;2022-10-31T05:43:44;86.10;;;40.70;;
26040;SDS011;13816;53.628;9.950;2022-10-31T05:46:12;85.67;;;40.37;;
26040;SDS011;13816;53.628;9.950;2022-10-31T05:49:12;90.07;;;37.57;;
26040;SDS011;13816;53.628;9.950;2022-10-31T05:51:56;96.37;;;38.93;;
26040;SDS011;13816;53.628;9.950;2022-10-31T05:54:31;97.47;;;40.53;;
26040;SDS011;13816;53.628;9.950;2022-10-31T05:56:57;79.20;;;37.80;;
26040;SDS011;13816;53.628;9.950;2022-10-31T05:59:23;91.13;;;38.87;;
26040;SDS011;13816;53.628;9.950;2022-10-31T06:01:49;83.33;;;38.40;;
26040;SDS011;13816;53.628;9.950;2022-10-31T06:04:31;97.03;;;38.13;;
26040;SDS011;13816;53.628;9.950;2022-10-31T06:06:58;92.40;;;39.23;;
26040;SDS011;13816;53.628;9.950;2022-10-31T06:09:24;94.87;;;39.67;;
26040;SDS011;13816;53.628;9.950;2022-10-31T06:11:50;103.47;;;40.30;;
26040;SDS011;13816;53.628;9.950;2022-10-31T06:14:25;103.60;;;38.33;;
26040;SDS011;13816;53.628;9.950;2022-10-31T06:16:56;83.67;;;39.07;;
26040;SDS011;13816;53.628;9.950;2022-10-31T06:19:40;125.70;;;42.10;;
26040;SDS011;13816;53.628;9.950;2022-10-31T06:22:07;99.80;;;40.07;;
26040;SDS011;13816;53.628;9.950;2022-10-31T06:24:33;99.07;;;40.37;;
26040;SDS011;13816;53.628;9.950;2022-10-31T06:27:22;85.23;;;37.87;;
26040;SDS011;13816;53.628;9.950;2022-10-31T06:29:48;100.67;;;41.50;;
26040;SDS011;13816;53.628;9.950;2022-10-31T06:32:39;91.37;;;39.13;;
26040;SDS011;13816;53.628;9.950;2022-10-31T06:35:07;67.60;;;35.73;;
26040;SDS011;13816;53.628;9.950;2022-10-31T06:37:34;81.67;;;37.20;;
26040;SDS011;13816;53.628;9.950;2022-10-31T06:40:10;77.40;;;35.70;;
26040;SDS011;13816;53.628;9.950;2022-10-31T06:42:56;79.10;;;36.07;;
26040;SDS011;13816;53.628;9.950;2022-10-31T06:45:26;76.47;;;36.27;;
26040;SDS011;13816;53.628;9.950;2022-10-31T06:48:28;90.40;;;37.30;;
26040;SDS011;13816;53.628;9.950;2022-10-31T06:51:14;74.10;;;35.67;;
26040;SDS011;13816;53.628;9.950;2022-10-31T06:53:40;82.17;;;37.67;;
26040;SDS011;13816;53.628;9.950;2022-10-31T06:56:09;90.60;;;38.27;;
26040;SDS011;13816;53.628;9.950;2022-10-31T06:58:39;74.77;;;36.20;;
26040;SDS011;13816;53.628;9.950;2022-10-31T07:01:07;82.83;;;35.87;;
26040;SDS011;13816;53.628;9.950;2022-10-31T07:03:33;90.13;;;39.53;;
26040;SDS011;13816;53.628;9.950;2022-10-31T07:05:58;83.20;;;37.73;;
26040;SDS011;13816;53.628;9.950;2022-10-31T07:08:24;77.07;;;37.50;;
26040;SDS011;13816;53.628;9.950;2022-10-31T07:10:54;83.13;;;35.47;;
26040;SDS011;13816;53.628;9.950;2022-10-31T07:13:22;73.93;;;35.97;;
26040;SDS011;13816;53.628;9.950;2022-10-31T07:16:05;71.73;;;34.80;;
26040;SDS011;13816;53.628;9.950;2022-10-31T07:18:39;75.37;;;34.60;;
26040;SDS011;13816;53.628;9.950;2022-10-31T07:21:06;69.33;;;34.03;;
26040;SDS011;13816;53.628;9.950;2022-10-31T07:23:32;69.27;;;35.90;;
26040;SDS011;13816;53.628;9.950;2022-10-31T07:26:18;73.57;;;34.20;;
26040;SDS011;13816;53.628;9.950;2022-10-31T07:28:46;84.63;;;34.63;;
26040;SDS011;13816;53.628;9.950;2022-10-31T07:31:14;85.40;;;33.50;;
26040;SDS011;13816;53.628;9.950;2022-10-31T07:33:40;71.07;;;34.60;;
26040;SDS011;13816;53.628;9.950;2022-10-31T07:36:24;65.10;;;32.33;;
26040;SDS011;13816;53.628;9.950;2022-10-31T07:38:51;79.73;;;32.90;;
26040;SDS011;13816;53.628;9.950;2022-10-31T07:41:17;64.57;;;30.83;;
26040;SDS011;13816;53.628;9.950;2022-10-31T07:43:44;56.83;;;28.50;;
26040;SDS011;13816;53.628;9.950;2022-10-31T07:46:16;82.80;;;29.37;;
26040;SDS011;13816;53.628;9.950;2022-10-31T07:49:04;79.30;;;30.80;;
26040;SDS011;13816;53.628;9.950;2022-10-31T07:51:48;64.40;;;27.43;;
26040;SDS011;13816;53.628;9.950;2022-10-31T07:54:34;56.93;;;27.40;;
26040;SDS011;13816;53.628;9.950;2022-10-31T07:57:00;70.20;;;28.83;;
26040;SDS011;13816;53.628;9.950;2022-10-31T07:59:26;47.43;;;26.27;;
26040;SDS011;13816;53.628;9.950;2022-10-31T08:01:53;48.03;;;27.17;;
26040;SDS011;13816;53.628;9.950;2022-10-31T08:04:47;53.53;;;24.37;;
26040;SDS011;13816;53.628;9.950;2022-10-31T08:07:35;51.60;;;24.43;;
26040;SDS011;13816;53.628;9.950;2022-10-31T08:10:04;45.33;;;24.60;;
26040;SDS011;13816;53.628;9.950;2022-10-31T08:12:30;44.37;;;25.77;;
26040;SDS011;13816;53.628;9.950;2022-10-31T08:14:56;55.43;;;26.60;;
26040;SDS011;13816;53.628;9.950;2022-10-31T08:17:22;44.47;;;24.53;;
26040;SDS011;13816;53.628;9.950;2022-10-31T08:19:59;50.13;;;26.50;;
26040;SDS011;13816;53.628;9.950;2022-10-31T08:22:32;51.50;;;27.83;;
26040;SDS011;13816;53.628;9.950;2022-10-31T08:24:59;50.13;;;26.47;;
26040;SDS011;13816;53.628;9.950;2022-10-31T08:27:26;46.20;;;26.03;;
26040;SDS011;13816;53.628;9.950;2022-10-31T08:29:54;64.17;;;27.50;;
26040;SDS011;13816;53.628;9.950;2022-10-31T08:32:21;59.70;;;26.87;;
26040;SDS011;13816;53.628;9.950;2022-10-31T08:35:07;44.43;;;25.87;;
26040;SDS011;13816;53.628;9.950;2022-10-31T08:37:52;65.67;;;28.30;;
26040;SDS011;13816;53.628;9.950;2022-10-31T08:40:19;43.60;;;27.53;;
26040;SDS011;13816;53.628;9.950;2022-10-31T08:42:45;54.80;;;25.20;;
26040;SDS011;13816;53.628;9.950;2022-10-31T08:45:11;47.90;;;26.90;;
26040;SDS011;13816;53.628;9.950;2022-10-31T08:47:36;61.10;;;25.10;;
26040;SDS011;13816;53.628;9.950;2022-10-31T08:50:03;43.83;;;27.00;;
26040;SDS011;13816;53.628;9.950;2022-10-31T08:52:29;40.30;;;24.67;;
26040;SDS011;13816;53.628;9.950;2022-10-31T08:55:00;47.03;;;26.33;;
26040;SDS011;13816;53.628;9.950;2022-10-31T08:57:56;43.83;;;25.63;;
26040;SDS011;13816;53.628;9.950;2022-10-31T09:00:27;40.33;;;25.10;;
26040;SDS011;13816;53.628;9.950;2022-10-31T09:03:01;74.30;;;26.63;;
26040;SDS011;13816;53.628;9.950;2022-10-31T09:05:30;58.10;;;27.93;;
26040;SDS011;13816;53.628;9.950;2022-10-31T09:07:57;42.80;;;25.90;;
26040;SDS011;13816;53.628;9.950;2022-10-31T09:10:24;41.03;;;25.97;;
26040;SDS011;13816;53.628;9.950;2022-10-31T09:12:57;43.20;;;25.17;;
26040;SDS011;13816;53.628;9.950;2022-10-31T09:16:25;39.13;;;23.17;;
26040;SDS011;13816;53.628;9.950;2022-10-31T09:18:50;41.83;;;24.80;;
26040;SDS011;13816;53.628;9.950;2022-10-31T09:21:16;47.50;;;24.80;;
26040;SDS011;13816;53.628;9.950;2022-10-31T09:23:42;39.37;;;23.07;;
26040;SDS011;13816;53.628;9.950;2022-10-31T09:26:08;39.10;;;25.17;;
26040;SDS011;13816;53.628;9.950;2022-10-31T09:28:44;47.40;;;23.73;;
26040;SDS011;13816;53.628;9.950;2022-10-31T09:31:12;39.63;;;21.70;;
26040;SDS011;13816;53.628;9.950;2022-10-31T09:34:00;42.90;;;24.63;;
26040;SDS011;13816;53.628;9.950;2022-10-31T09:36:35;39.13;;;23.00;;
26040;SDS011;13816;53.628;9.950;2022-10-31T09:39:13;42.40;;;21.87;;
26040;SDS011;13816;53.628;9.950;2022-10-31T09:41:47;36.90;;;22.40;;
26040;SDS011;13816;53.628;9.950;2022-10-31T09:44:40;47.63;;;22.90;;
26040;SDS011;13816;53.628;9.950;2022-10-31T09:53:32;39.43;;;20.53;;
26040;SDS011;13816;53.628;9.950;2022-10-31T09:56:38;39.30;;;20.87;;
26040;SDS011;13816;53.628;9.950;2022-10-31T09:59:06;41.73;;;20.90;;
26040;SDS011;13816;53.628;9.950;2022-10-31T10:01:46;41.30;;;22.00;;
26040;SDS011;13816;53.628;9.950;2022-10-31T10:24:38;38.60;;;20.47;;
26040;SDS011;13816;53.628;9.950;2022-10-31T10:30:13;41.37;;;21.77;;
26040;SDS011;13816;53.628;9.950;2022-10-31T10:32:56;40.93;;;22.50;;
26040;SDS011;13816;53.628;9.950;2022-10-31T10:35:45;45.90;;;22.30;;
26040;SDS011;13816;53.628;9.950;2022-10-31T10:40:49;40.47;;;22.57;;
26040;SDS011;13816;53.628;9.950;2022-10-31T10:51:40;37.60;;;22.37;;
26040;SDS011;13816;53.628;9.950;2022-10-31T10:54:39;34.10;;;22.00;;
26040;SDS011;13816;53.628;9.950;2022-10-31T10:57:16;43.57;;;20.60;;
26040;SDS011;13816;53.628;9.950;2022-10-31T10:59:47;39.30;;;20.40;;
26040;SDS011;13816;53.628;9.950;2022-10-31T11:02:18;33.33;;;19.48;;
26040;SDS011;13816;53.628;9.950;2022-10-31T11:04:47;38.13;;;20.65;;
26040;SDS011;13816;53.628;9.950;2022-10-31T11:07:19;31.23;;;18.60;;
26040;SDS011;13816;53.628;9.950;2022-10-31T11:09:45;34.97;;;21.03;;
26040;SDS011;13816;53.628;9.950;2022-10-31T11:12:22;35.13;;;19.53;;
26040;SDS011;13816;53.628;9.950;2022-10-31T11:14:56;33.77;;;18.83;;
26040;SDS011;13816;53.628;9.950;2022-10-31T11:17:33;37.43;;;19.70;;
26040;SDS011;13816;53.628;9.950;2022-10-31T11:22:40;42.07;;;22.97;;
26040;SDS011;13816;53.628;9.950;2022-10-31T11:33:38;24.30;;;15.70;;
26040;SDS011;13816;53.628;9.950;2022-10-31T11:36:27;23.10;;;14.10;;
26040;SDS011;13816;53.628;9.950;2022-10-31T11:39:23;24.27;;;13.83;;
26040;SDS011;13816;53.628;9.950;2022-10-31T11:41:49;28.27;;;14.50;;
26040;SDS011;13816;53.628;9.950;2022-10-31T11:44:18;23.30;;;14.30;;
26040;SDS011;13816;53.628;9.950;2022-10-31T11:46:47;26.93;;;14.70;;
26040;SDS011;13816;53.628;9.950;2022-10-31T11:49:17;27.03;;;13.57;;
26040;SDS011;13816;53.628;9.950;2022-10-31T11:51:47;23.07;;;14.80;;
26040;SDS011;13816;53.628;9.950;2022-10-31T11:56:53;21.77;;;13.93;;
26040;SDS011;13816;53.628;9.950;2022-10-31T11:59:28;23.77;;;14.20;;
26040;SDS011;13816;53.628;9.950;2022-10-31T12:01:57;25.40;;;13.93;;
26040;SDS011;13816;53.628;9.950;2022-10-31T12:04:58;19.30;;;13.47;;
26040;SDS011;13816;53.628;9.950;2022-10-31T12:07:23;23.50;;;13.73;;
26040;SDS011;13816;53.628;9.950;2022-10-31T12:09:49;25.47;;;15.00;;
26040;SDS011;13816;53.628;9.950;2022-10-31T12:12:24;29.83;;;15.40;;
26040;SDS011;13816;53.628;9.950;2022-10-31T12:15:18;22.37;;;13.73;;
26040;SDS011;13816;53.628;9.950;2022-10-31T12:20:54;27.53;;;14.47;;
26040;SDS011;13816;53.628;9.950;2022-10-31T12:23:56;23.47;;;13.93;;
26040;SDS011;13816;53.628;9.950;2022-10-31T12:26:42;23.73;;;14.77;;
26040;SDS011;13816;53.628;9.950;2022-10-31T12:38:10;25.70;;;14.93;;
26040;SDS011;13816;53.628;9.950;2022-10-31T12:41:03;27.90;;;16.60;;
26040;SDS011;13816;53.628;9.950;2022-10-31T12:43:52;24.13;;;13.70;;
26040;SDS011;13816;53.628;9.950;2022-10-31T12:49:38;28.57;;;19.00;;
26040;SDS011;13816;53.628;9.950;2022-10-31T12:52:20;32.83;;;21.40;;
26040;SDS011;13816;53.628;9.950;2022-10-31T12:55:15;34.85;;;23.73;;
26040;SDS011;13816;53.628;9.950;2022-10-31T12:57:52;37.40;;;26.83;;
26040;SDS011;13816;53.628;9.950;2022-10-31T13:00:23;38.33;;;26.47;;
26040;SDS011;13816;53.628;9.950;2022-10-31T13:02:56;40.03;;;27.63;;
26040;SDS011;13816;53.628;9.950;2022-10-31T13:05:43;46.00;;;29.07;;
26040;SDS011;13816;53.628;9.950;2022-10-31T13:08:17;58.57;;;32.13;;
26040;SDS011;13816;53.628;9.950;2022-10-31T13:10:44;47.17;;;29.87;;
26040;SDS011;13816;53.628;9.950;2022-10-31T13:16:34;54.07;;;30.30;;
26040;SDS011;13816;53.628;9.950;2022-10-31T13:24:50;49.93;;;30.53;;
26040;SDS011;13816;53.628;9.950;2022-10-31T13:27:54;51.37;;;30.00;;
26040;SDS011;13816;53.628;9.950;2022-10-31T13:30:38;46.77;;;29.10;;
26040;SDS011;13816;53.628;9.950;2022-10-31T13:33:12;43.33;;;29.27;;
26040;SDS011;13816;53.628;9.950;2022-10-31T13:35:50;45.80;;;30.17;;
26040;SDS011;13816;53.628;9.950;2022-10-31T13:41:02;55.00;;;31.60;;
26040;SDS011;13816;53.628;9.950;2022-10-31T13:43:59;55.50;;;32.43;;
26040;SDS011;13816;53.628;9.950;2022-10-31T13:48:57;51.07;;;32.47;;
26040;SDS011;13816;53.628;9.950;2022-10-31T13:51:27;52.03;;;33.40;;
26040;SDS011;13816;53.628;9.950;2022-10-31T13:56:21;56.83;;;35.73;;
26040;SDS011;13816;53.628;9.950;2022-10-31T14:02:00;53.80;;;32.80;;
26040;SDS011;13816;53.628;9.950;2022-10-31T14:04:49;54.77;;;34.30;;
26040;SDS011;13816;53.628;9.950;2022-10-31T14:07:23;52.50;;;31.60;;
26040;SDS011;13816;53.628;9.950;2022-10-31T14:10:00;46.97;;;29.53;;
26040;SDS011;13816;53.628;9.950;2022-10-31T14:12:40;42.00;;;28.27;;
26040;SDS011;13816;53.628;9.950;2022-10-31T14:17:44;39.57;;;28.00;;
26040;SDS011;13816;53.628;9.950;2022-10-31T14:22:54;41.23;;;26.30;;
26040;SDS011;13816;53.628;9.950;2022-10-31T14:25:27;46.63;;;27.53;;
26040;SDS011;13816;53.628;9.950;2022-10-31T14:27:58;42.17;;;26.00;;
26040;SDS011;13816;53.628;9.950;2022-10-31T14:30:50;41.00;;;25.33;;
26040;SDS011;13816;53.628;9.950;2022-10-31T14:33:20;42.80;;;26.30;;
26040;SDS011;13816;53.628;9.950;2022-10-31T14:36:00;39.63;;;27.20;;
26040;SDS011;13816;53.628;9.950;2022-10-31T14:52:26;39.60;;;23.00;;
26040;SDS011;13816;53.628;9.950;2022-10-31T14:54:53;30.47;;;20.50;;
26040;SDS011;13816;53.628;9.950;2022-10-31T14:57:26;31.00;;;21.57;;
26040;SDS011;13816;53.628;9.950;2022-10-31T14:59:59;28.37;;;19.90;;
26040;SDS011;13816;53.628;9.950;2022-10-31T15:05:32;27.20;;;19.70;;
26040;SDS011;13816;53.628;9.950;2022-10-31T15:08:12;30.53;;;20.00;;
26040;SDS011;13816;53.628;9.950;2022-10-31T15:10:50;33.30;;;20.73;;
26040;SDS011;13816;53.628;9.950;2022-10-31T15:13:17;28.90;;;20.40;;
26040;SDS011;13816;53.628;9.950;2022-10-31T15:15:46;36.00;;;21.90;;
26040;SDS011;13816;53.628;9.950;2022-10-31T15:18:16;29.30;;;19.33;;
26040;SDS011;13816;53.628;9.950;2022-10-31T15:20:43;41.53;;;20.70;;
26040;SDS011;13816;53.628;9.950;2022-10-31T15:23:11;43.13;;;22.40;;
26040;SDS011;13816;53.628;9.950;2022-10-31T15:25:42;31.30;;;21.77;;
26040;SDS011;13816;53.628;9.950;2022-10-31T15:28:14;29.67;;;20.83;;
26040;SDS011;13816;53.628;9.950;2022-10-31T15:30:50;32.00;;;21.23;;
26040;SDS011;13816;53.628;9.950;2022-10-31T15:33:22;33.80;;;20.63;;
26040;SDS011;13816;53.628;9.950;2022-10-31T15:36:05;32.63;;;21.17;;
26040;SDS011;13816;53.628;9.950;2022-10-31T15:38:31;31.40;;;21.20;;
26040;SDS011;13816;53.628;9.950;2022-10-31T15:41:05;33.03;;;20.23;;
26040;SDS011;13816;53.628;9.950;2022-10-31T15:43:45;30.53;;;20.00;;
26040;SDS011;13816;53.628;9.950;2022-10-31T15:46:12;35.30;;;20.70;;
26040;SDS011;13816;53.628;9.950;2022-10-31T15:48:38;27.40;;;18.50;;
26040;SDS011;13816;53.628;9.950;2022-10-31T15:51:08;29.73;;;20.67;;
26040;SDS011;13816;53.628;9.950;2022-10-31T15:56:19;32.03;;;19.20;;
26040;SDS011;13816;53.628;9.950;2022-10-31T15:58:54;30.57;;;22.00;;
26040;SDS011;13816;53.628;9.950;2022-10-31T16:06:25;29.63;;;19.20;;
26040;SDS011;13816;53.628;9.950;2022-10-31T16:08:51;33.20;;;21.40;;
26040;SDS011;13816;53.628;9.950;2022-10-31T16:14:15;29.43;;;19.63;;
26040;SDS011;13816;53.628;9.950;2022-10-31T16:16:54;49.33;;;30.73;;
26040;SDS011;13816;53.628;9.950;2022-10-31T16:19:24;43.67;;;26.93;;
26040;SDS011;13816;53.628;9.950;2022-10-31T16:21:54;46.67;;;29.90;;
26040;SDS011;13816;53.628;9.950;2022-10-31T16:24:49;39.17;;;25.17;;
26040;SDS011;13816;53.628;9.950;2022-10-31T16:27:19;34.40;;;21.60;;
26040;SDS011;13816;53.628;9.950;2022-10-31T16:29:53;30.37;;;21.57;;
26040;SDS011;13816;53.628;9.950;2022-10-31T16:35:26;33.80;;;20.07;;
26040;SDS011;13816;53.628;9.950;2022-10-31T16:38:02;32.57;;;19.97;;
26040;SDS011;13816;53.628;9.950;2022-10-31T16:40:28;34.07;;;20.93;;
26040;SDS011;13816;53.628;9.950;2022-10-31T16:42:56;37.47;;;20.90;;
26040;SDS011;13816;53.628;9.950;2022-10-31T16:45:25;38.03;;;20.70;;
26040;SDS011;13816;53.628;9.950;2022-10-31T16:47:54;32.97;;;22.00;;
26040;SDS011;13816;53.628;9.950;2022-10-31T16:50:30;40.17;;;21.57;;
26040;SDS011;13816;53.628;9.950;2022-10-31T16:52:56;32.60;;;20.50;;
26040;SDS011;13816;53.628;9.950;2022-10-31T16:55:22;33.67;;;21.17;;
26040;SDS011;13816;53.628;9.950;2022-10-31T16:57:55;38.43;;;21.90;;
26040;SDS011;13816;53.628;9.950;2022-10-31T17:00:22;38.60;;;22.77;;
26040;SDS011;13816;53.628;9.950;2022-10-31T17:02:50;43.90;;;24.30;;
26040;SDS011;13816;53.628;9.950;2022-10-31T17:05:17;48.23;;;25.37;;
26040;SDS011;13816;53.628;9.950;2022-10-31T17:07:44;40.37;;;22.10;;
26040;SDS011;13816;53.628;9.950;2022-10-31T17:10:11;38.07;;;23.27;;
26040;SDS011;13816;53.628;9.950;2022-10-31T17:12:39;36.80;;;23.03;;
26040;SDS011;13816;53.628;9.950;2022-10-31T17:15:13;39.13;;;23.23;;
26040;SDS011;13816;53.628;9.950;2022-10-31T17:17:51;33.53;;;21.63;;
26040;SDS011;13816;53.628;9.950;2022-10-31T17:20:18;37.57;;;23.40;;
26040;SDS011;13816;53.628;9.950;2022-10-31T17:22:52;43.17;;;26.53;;